Time;durP1;ratioP1;P1;durP2;ratioP2;P2;SDS_P1;SDS_P2;PMS_P1;PMS_P2;Temp;Humidity;BMP_temperature;BMP_pressure;BME280_temperature;BME280_humidity;BME280_pressure;Samples;Min_cycle;Max_cycle;Signal;HPM_P1;HPM_P2
2023/11/30 02:01:53;;;;;;;;;33.33;32.00;;;;;10.99;70.39;99254.72;6291096;22;45758;-84
2023/11/30 02:04:20;;;;;;;;;30.00;26.67;;;;;10.69;70.67;99260.38;6350413;22;45243;-83
2023/11/30 02:06:46;;;;;;;;;37.67;36.00;;;;;10.73;70.61;99251.47;6321449;22;45528;-84
2023/11/30 02:09:12;;;;;;;;;35.33;31.00;;;;;10.71;70.45;99253.28;6346702;22;47099;-83
2023/11/30 02:11:39;;;;;;;;;29.00;29.00;;;;;10.65;70.58;99240.03;6322100;22;44898;-84
2023/11/30 02:14:05;;;;;;;;;40.33;33.67;;;;;10.58;70.63;99248.09;6350233;22;44675;-83
2023/11/30 02:16:30;;;;;;;;;34.67;34.33;;;;;10.55;70.53;99261.38;6321524;22;45216;-84
2023/11/30 02:18:56;;;;;;;;;35.67;33.33;;;;;10.56;70.75;99255.19;6348500;22;45325;-87
2023/11/30 02:21:23;;;;;;;;;32.67;30.33;;;;;10.70;71.07;99256.81;6347940;22;45203;-84
2023/11/30 02:23:49;;;;;;;;;32.67;31.00;;;;;10.46;71.28;99253.50;6348291;22;45382;-84
2023/11/30 02:26:16;;;;;;;;;42.33;32.33;;;;;10.48;70.96;99246.38;6350455;22;45432;-84
2023/11/30 02:28:42;;;;;;;;;36.00;35.67;;;;;10.35;71.31;99263.34;6322319;22;46993;-83
2023/11/30 02:31:14;;;;;;;;;39.33;37.67;;;;;10.32;71.09;99258.06;6321176;22;44877;-84
2023/11/30 02:33:39;;;;;;;;;28.67;25.67;;;;;10.29;71.38;99261.59;6322622;22;44911;-83
2023/11/30 02:36:05;;;;;;;;;39.00;38.00;;;;;10.33;71.50;99251.84;6351378;22;44804;-84
2023/11/30 02:38:31;;;;;;;;;29.33;29.00;;;;;10.17;71.20;99236.00;6322536;22;47290;-84
2023/11/30 02:40:56;;;;;;;;;40.67;38.00;;;;;10.21;71.11;99237.75;6349887;22;48760;-84
2023/11/30 02:43:22;;;;;;;;;40.33;38.00;;;;;10.21;71.11;99237.75;6378681;22;44868;-84
2023/11/30 02:45:48;;;;;;;;;38.33;36.67;;;;;10.18;71.46;99220.97;6381913;22;45309;-84
2023/11/30 02:48:14;;;;;;;;;45.00;37.00;;;;;10.34;71.35;99221.72;6381909;22;45187;-84
2023/11/30 02:50:46;;;;;;;;;45.33;40.67;;;;;10.51;71.54;99198.53;6352473;22;44711;-84
2023/11/30 02:53:11;;;;;;;;;43.67;36.00;;;;;10.16;71.30;99207.69;6352819;22;44827;-85
2023/11/30 02:55:37;;;;;;;;;39.00;37.00;;;;;10.16;71.16;99197.06;6380741;22;45273;-83
2023/11/30 02:58:02;;;;;;;;;42.67;38.00;;;;;10.14;71.67;99190.88;6353353;22;48125;-84
2023/11/30 03:00:28;;;;;;;;;47.00;40.67;;;;;10.15;71.64;99186.44;6352181;22;45152;-85
2023/11/30 03:02:53;;;;;;;;;38.00;37.33;;;;;10.08;71.62;99180.31;6353369;22;45612;-84
2023/11/30 03:05:18;;;;;;;;;41.33;38.00;;;;;10.10;71.86;99190.91;6352664;22;44864;-84
2023/11/30 03:07:43;;;;;;;;;36.00;34.00;;;;;10.13;72.02;99197.06;6381123;22;45361;-84
2023/11/30 03:10:09;;;;;;;;;37.33;36.33;;;;;10.16;71.70;99206.78;6353043;22;45805;-85
2023/11/30 03:12:34;;;;;;;;;38.67;36.00;;;;;10.15;71.92;99208.56;6381691;22;44810;-85
2023/11/30 03:15:00;;;;;;;;;42.33;36.67;;;;;10.21;72.01;99212.97;6381432;22;45178;-85
2023/11/30 03:17:25;;;;;;;;;34.00;33.33;;;;;10.17;72.05;99204.13;6353450;22;46949;-84
2023/11/30 03:19:50;;;;;;;;;42.33;39.00;;;;;10.17;71.70;99189.97;6353380;22;44832;-84
2023/11/30 03:22:16;;;;;;;;;38.67;35.00;;;;;10.13;72.12;99197.06;6382186;22;45341;-84
2023/11/30 03:24:41;;;;;;;;;30.33;26.67;;;;;10.13;72.23;99188.22;6382112;22;44789;-84
2023/11/30 03:27:11;;;;;;;;;37.67;36.67;;;;;10.11;71.72;99187.38;6381360;22;46602;-84
2023/11/30 03:29:37;;;;;;;;;37.67;36.33;;;;;10.08;71.95;99190.94;6380376;22;45235;-85
2023/11/30 03:32:02;;;;;;;;;40.33;35.00;;;;;10.05;71.74;99180.31;6380536;22;45473;-85
2023/11/30 03:34:28;;;;;;;;;40.33;38.33;;;;;9.97;72.01;99164.47;6381819;22;45297;-85
2023/11/30 03:36:53;;;;;;;;;38.67;37.00;;;;;10.03;72.29;99176.81;6380202;22;44899;-84
2023/11/30 03:39:18;;;;;;;;;37.33;36.33;;;;;10.04;72.18;99177.69;6381771;22;45895;-82
2023/11/30 03:41:44;;;;;;;;;41.33;35.33;;;;;10.01;72.01;99175.94;6379696;22;45686;-84
2023/11/30 03:44:09;;;;;;;;;37.00;34.00;;;;;9.98;72.01;99160.06;6377107;22;44738;-83
2023/11/30 03:46:35;;;;;;;;;42.00;37.33;;;;;10.14;72.04;99174.03;6353287;22;46984;-83
2023/11/30 03:49:01;;;;;;;;;38.67;37.00;;;;;9.98;72.43;99171.53;6352743;22;45189;-85
2023/11/30 03:51:26;;;;;;;;;36.00;33.00;;;;;9.96;72.15;99159.19;6380352;22;45435;-85
2023/11/30 03:53:51;;;;;;;;;36.67;34.33;;;;;9.96;72.27;99157.41;6351742;22;44846;-85
2023/11/30 03:56:17;;;;;;;;;28.00;28.00;;;;;9.95;71.96;99150.31;6381328;22;45297;-85
2023/11/30 03:58:42;;;;;;;;;39.33;38.00;;;;;9.93;72.17;99157.41;6352714;22;44854;-86
2023/11/30 04:01:08;;;;;;;;;39.67;36.33;;;;;9.96;72.50;99162.72;6352945;22;45240;-85
2023/11/30 04:03:33;;;;;;;;;36.33;34.00;;;;;9.98;72.73;99168.00;6381636;22;45737;-85
2023/11/30 04:05:58;;;;;;;;;40.33;39.00;;;;;9.92;72.13;99160.09;6381282;22;45496;-83
2023/11/30 04:08:24;;;;;;;;;38.67;32.00;;;;;9.90;71.88;99157.47;6382397;22;45313;-85
2023/11/30 04:10:49;;;;;;;;;35.67;35.33;;;;;9.89;71.91;99153.03;6381539;22;44809;-84
2023/11/30 04:16:37;;;;;;;;;37.33;36.67;;;;;9.87;72.39;99141.53;6380805;22;44855;-85
2023/11/30 04:19:02;;;;;;;;;38.67;34.33;;;;;9.97;72.38;99152.97;6353068;22;45321;-85
2023/11/30 04:21:28;;;;;;;;;38.00;35.00;;;;;10.03;72.55;99160.88;6352599;22;45421;-85
2023/11/30 04:39:25;;;;;;;;;32.33;31.33;;;;;10.42;71.38;99132.16;6227556;22;45881;-84
2023/11/30 04:41:51;;;;;;;;;40.67;36.67;;;;;10.49;71.18;99143.63;6350704;22;45546;-84
2023/11/30 04:44:20;;;;;;;;;37.00;33.33;;;;;10.54;71.43;99149.75;6349898;22;45281;-84
2023/11/30 04:46:45;;;;;;;;;47.67;38.33;;;;;10.60;71.61;99149.69;6321020;22;47258;-85
2023/11/30 04:49:11;;;;;;;;;45.00;41.00;;;;;10.68;71.32;99157.56;6321753;22;45321;-83
2023/11/30 04:51:37;;;;;;;;;44.67;38.00;;;;;10.69;71.82;99138.06;6350409;22;45145;-83
2023/11/30 04:54:02;;;;;;;;;48.33;41.00;;;;;10.71;71.94;99133.63;6351698;22;44684;-84
2023/11/30 04:56:27;;;;;;;;;32.33;32.33;;;;;10.74;71.71;99130.91;6322607;22;46939;-84
2023/11/30 04:58:53;;;;;;;;;45.33;41.33;;;;;10.77;71.70;99133.53;6323736;22;45877;-84
2023/11/30 05:01:20;;;;;;;;;43.33;40.33;;;;;10.75;71.88;99138.00;6323634;22;45311;-84
2023/11/30 05:03:45;;;;;;;;;45.00;41.00;;;;;10.76;71.85;99134.44;6323994;22;45415;-83
2023/11/30 05:06:11;;;;;;;;;39.67;38.00;;;;;10.77;71.77;99123.78;6348245;22;47327;-85
2023/11/30 05:08:36;;;;;;;;;43.00;39.67;;;;;10.75;71.51;99133.56;6348582;22;44891;-84
2023/11/30 05:11:02;;;;;;;;;43.33;39.67;;;;;10.67;71.92;99124.78;6348916;22;45384;-85
2023/11/30 05:13:33;;;;;;;;;50.67;44.33;;;;;10.96;71.82;99131.50;6347711;22;45339;-85
2023/11/30 05:15:59;;;;;;;;;45.00;40.00;;;;;10.58;71.98;99127.56;6348578;22;47305;-83
2023/11/30 05:18:25;;;;;;;;;48.67;42.00;;;;;10.68;71.99;99121.22;6350473;22;45454;-82
2023/11/30 05:20:50;;;;;;;;;46.33;41.00;;;;;10.67;71.96;99118.59;6321108;22;44827;-85
2023/11/30 05:23:16;;;;;;;;;48.67;40.33;;;;;10.61;71.67;99116.91;6351496;22;44818;-83
2023/11/30 05:25:42;;;;;;;;;50.33;42.33;;;;;10.67;71.64;99127.47;6346586;22;46579;-85
2023/11/30 05:28:07;;;;;;;;;46.33;41.67;;;;;10.61;71.41;99119.56;6347462;22;44904;-84
2023/11/30 05:30:32;;;;;;;;;53.00;43.33;;;;;10.61;71.75;99125.75;6321668;22;45314;-85
2023/11/30 05:32:58;;;;;;;;;36.67;36.00;;;;;10.52;71.15;99131.19;6320952;22;44963;-84
2023/11/30 05:35:23;;;;;;;;;53.67;42.00;;;;;10.52;71.48;99136.50;6349028;22;45099;-84
2023/11/30 05:37:48;;;;;;;;;38.67;34.33;;;;;10.51;71.53;99139.16;6320502;22;44890;-84
2023/11/30 05:40:16;;;;;;;;;35.67;35.67;;;;;10.46;70.28;99135.66;6337221;22;45403;-83
2023/11/30 05:42:41;;;;;;;;;47.00;40.33;;;;;10.38;70.53;99144.63;6382468;22;45290;-85
2023/11/30 05:45:07;;;;;;;;;45.33;41.00;;;;;10.35;71.29;99138.47;6380129;22;46031;-85
2023/11/30 05:47:33;;;;;;;;;43.00;40.33;;;;;10.34;71.16;99136.69;6352343;22;44864;-85
2023/11/30 05:49:58;;;;;;;;;45.67;41.00;;;;;10.36;70.94;99124.25;6353305;22;45238;-85
2023/11/30 05:52:24;;;;;;;;;49.00;42.67;;;;;10.31;70.82;99126.97;6353156;22;45227;-84
2023/11/30 05:54:49;;;;;;;;;42.33;40.67;;;;;10.38;71.11;99139.31;6351527;22;47332;-85
2023/11/30 05:57:14;;;;;;;;;40.67;35.33;;;;;10.33;70.88;99130.50;6380790;22;44790;-84
2023/11/30 05:59:40;;;;;;;;;46.00;38.33;;;;;10.34;70.73;99137.59;6382056;22;45924;-85
2023/11/30 06:02:10;;;;;;;;;24.67;23.00;;;;;10.37;71.21;99132.22;6381883;22;44880;-84
2023/11/30 06:04:36;;;;;;;;;28.00;25.00;;;;;10.29;70.12;99123.41;6353614;22;48064;-84
2023/11/30 06:07:01;;;;;;;;;40.00;38.33;;;;;10.23;71.08;99117.31;6352761;22;44776;-84
2023/11/30 06:09:26;;;;;;;;;44.33;40.33;;;;;10.17;71.36;99103.16;6380501;22;45244;-84
2023/11/30 06:11:52;;;;;;;;;42.33;40.67;;;;;10.29;71.49;99111.91;6380968;22;45194;-85
2023/11/30 06:14:18;;;;;;;;;52.33;41.33;;;;;10.35;71.11;99111.88;6379893;22;45746;-84
2023/11/30 06:16:43;;;;;;;;;39.67;34.67;;;;;10.34;70.52;99112.75;6380840;22;45639;-84
2023/11/30 06:19:09;;;;;;;;;50.00;39.67;;;;;10.28;70.97;99104.84;6382470;22;45105;-85
2023/11/30 06:21:35;;;;;;;;;41.67;38.33;;;;;10.31;70.79;99105.72;6381871;22;44903;-84
2023/11/30 06:24:00;;;;;;;;;44.33;39.00;;;;;10.33;70.69;99122.53;6354415;22;46911;-84
2023/11/30 06:26:25;;;;;;;;;37.67;37.67;;;;;10.32;70.38;99102.19;6381650;22;45430;-83
2023/11/30 06:28:51;;;;;;;;;37.67;37.33;;;;;10.33;70.47;99103.91;6382029;22;44842;-83
2023/11/30 06:31:16;;;;;;;;;42.00;37.67;;;;;10.32;70.41;99096.88;6353161;22;44899;-84
2023/11/30 06:33:43;;;;;;;;;45.00;39.00;;;;;10.37;70.37;99103.00;6381209;22;45468;-83
2023/11/30 06:36:09;;;;;;;;;37.67;37.33;;;;;10.24;69.88;99103.09;6353640;22;44860;-84
2023/11/30 06:38:34;;;;;;;;;44.00;38.67;;;;;10.23;70.61;99112.00;6353484;22;44788;-83
2023/11/30 06:41:00;;;;;;;;;37.00;36.50;;;;;10.20;70.62;99124.41;6354335;22;44965;-85
2023/11/30 06:43:34;;;;;;;;;44.33;38.67;;;;;10.28;70.70;99116.38;6356579;22;47058;-83
2023/11/30 06:45:59;;;;;;;;;37.00;33.00;;;;;10.30;70.76;99119.00;6352104;22;45100;-84
2023/11/30 06:48:25;;;;;;;;;37.67;33.00;;;;;10.31;70.80;99115.47;6352134;22;44652;-84
2023/11/30 06:50:51;;;;;;;;;36.33;35.00;;;;;10.31;70.87;99119.00;6379457;22;44729;-85
2023/11/30 06:53:17;;;;;;;;;47.33;40.33;;;;;10.32;70.78;99125.19;6385008;22;45080;-86
2023/11/30 06:55:42;;;;;;;;;38.00;35.33;;;;;10.30;70.80;99117.25;6387680;22;45230;-84
2023/11/30 06:58:08;;;;;;;;;34.67;32.00;;;;;10.18;70.46;99091.66;6360406;22;44666;-84
2023/11/30 07:00:35;;;;;;;;;46.25;41.50;;;;;10.38;70.34;99103.88;6362354;22;45301;-84
2023/11/30 07:03:00;;;;;;;;;43.33;38.00;;;;;10.07;70.50;99101.50;6384676;22;45023;-84
2023/11/30 07:05:25;;;;;;;;;49.00;41.67;;;;;9.95;71.18;99106.94;6356152;22;44847;-84
2023/11/30 07:07:51;;;;;;;;;45.33;38.33;;;;;9.93;71.42;99104.31;6359041;22;44933;-84
2023/11/30 07:10:16;;;;;;;;;43.33;37.33;;;;;9.93;71.03;99106.09;6360139;22;45446;-83
2023/11/30 07:12:42;;;;;;;;;39.33;36.67;;;;;9.93;71.29;99099.00;6364327;22;46612;-85
2023/11/30 07:15:10;;;;;;;;;43.75;41.25;;;;;10.16;71.38;99101.44;6364178;22;45108;-84
2023/11/30 07:17:35;;;;;;;;;39.00;37.00;;;;;9.95;71.68;99096.31;6361381;22;44812;-83
2023/11/30 07:20:00;;;;;;;;;46.33;40.33;;;;;9.95;71.49;99098.97;6387466;22;44740;-83
2023/11/30 07:22:28;;;;;;;;;40.67;36.00;;;;;9.96;71.48;99111.38;6387834;22;46185;-83
2023/11/30 07:24:53;;;;;;;;;42.33;38.67;;;;;9.91;71.24;99116.72;6386726;22;44822;-84
2023/11/30 07:27:19;;;;;;;;;45.00;38.33;;;;;9.93;71.20;99109.63;6359838;22;44695;-82
2023/11/30 07:29:45;;;;;;;;;39.33;39.00;;;;;9.91;71.51;99121.16;6359236;22;44883;-84
2023/11/30 07:32:15;;;;;;;;;39.67;37.00;;;;;9.95;71.31;99129.06;6331266;22;46979;-83
2023/11/30 07:34:41;;;;;;;;;37.67;36.67;;;;;9.87;71.21;99138.00;6384418;22;44707;-83
2023/11/30 07:37:06;;;;;;;;;45.00;38.67;;;;;9.80;70.97;99130.09;6360242;22;44884;-84
2023/11/30 07:39:31;;;;;;;;;43.00;39.33;;;;;9.86;71.30;99139.78;6388814;22;44788;-85
2023/11/30 07:41:57;;;;;;;;;45.00;41.00;;;;;9.84;71.67;99138.03;6391441;22;45072;-84
2023/11/30 07:44:23;;;;;;;;;47.33;43.33;;;;;9.87;71.52;99130.91;6362469;22;45278;-84
2023/11/30 07:46:49;;;;;;;;;49.33;42.67;;;;;9.85;71.78;99131.84;6334143;22;44714;-83
2023/11/30 07:49:14;;;;;;;;;39.67;36.33;;;;;9.89;71.39;99128.25;6390092;22;44920;-85
2023/11/30 07:51:40;;;;;;;;;40.67;37.33;;;;;9.89;71.50;99130.91;6364119;22;47073;-86
2023/11/30 07:54:05;;;;;;;;;44.75;40.75;;;;;9.86;71.65;99133.59;6360904;22;44797;-85
2023/11/30 07:56:32;;;;;;;;;51.67;42.00;;;;;10.11;71.74;99129.81;6363863;22;45314;-84
2023/11/30 07:58:58;;;;;;;;;43.00;39.33;;;;;9.87;71.52;99130.03;6337581;22;44789;-85
2023/11/30 08:01:23;;;;;;;;;43.50;40.00;;;;;9.85;71.74;99129.19;6360083;22;47060;-85
2023/11/30 08:03:49;;;;;;;;;49.67;42.33;;;;;9.82;71.58;99136.28;6393565;22;44714;-85
2023/11/30 08:06:14;;;;;;;;;43.33;39.33;;;;;9.81;71.64;99142.47;6393872;22;44730;-85
2023/11/30 08:08:40;;;;;;;;;40.50;36.75;;;;;9.90;71.55;99148.63;6277857;22;46596;-83
2023/11/30 08:11:07;;;;;;;;;48.67;40.33;;;;;9.88;71.58;99142.44;6364115;22;45766;-83
2023/11/30 08:13:33;;;;;;;;;47.00;41.00;;;;;9.70;71.48;99133.72;6328219;22;44815;-84
2023/11/30 08:16:02;;;;;;;;;50.25;42.25;;;;;9.78;71.61;99137.19;6353139;22;45369;-85
2023/11/30 08:18:32;;;;;;;;;45.33;41.33;;;;;9.92;71.38;99176.03;6329333;22;45464;-86
2023/11/30 08:21:01;;;;;;;;;42.00;38.67;;;;;9.88;71.33;99150.41;6350614;22;45200;-86
2023/11/30 08:23:33;;;;;;;;;41.33;39.67;;;;;9.86;71.24;99176.97;6346568;22;45358;-88
2023/11/30 08:25:58;;;;;;;;;46.00;41.33;;;;;9.86;71.35;99168.13;6319781;22;45275;-89
2023/11/30 08:28:24;;;;;;;;;45.00;42.00;;;;;9.91;71.47;99169.81;6352729;22;44890;-85
2023/11/30 08:30:54;;;;;;;;;51.33;45.00;;;;;9.91;71.31;99179.56;6355834;22;45052;-88
2023/11/30 08:39:05;;;;;;;;;55.75;46.00;;;;;10.03;71.54;99152.91;6314037;22;45422;-86
2023/11/30 08:41:31;;;;;;;;;57.00;46.25;;;;;9.83;71.60;99150.41;6290755;22;48504;-86
2023/11/30 08:44:00;;;;;;;;;53.25;44.75;;;;;10.06;71.61;99162.59;6318099;22;44803;-85
2023/11/30 08:46:25;;;;;;;;;56.00;45.75;;;;;9.87;71.88;99172.53;6297620;22;44760;-85
2023/11/30 08:48:52;;;;;;;;;50.33;41.00;;;;;9.95;71.42;99155.63;6288085;22;45299;-84
2023/11/30 08:51:17;;;;;;;;;50.50;45.00;;;;;9.88;71.20;99188.44;6287320;22;47393;-85
2023/11/30 08:53:43;;;;;;;;;44.00;41.00;;;;;9.94;71.44;99190.19;6319481;22;45320;-87
2023/11/30 08:56:09;;;;;;;;;46.75;43.25;;;;;9.95;71.36;99186.63;6289152;22;45342;-85
2023/11/30 08:58:35;;;;;;;;;56.00;45.00;;;;;10.01;71.06;99191.88;6289609;22;45462;-86
2023/11/30 09:01:07;;;;;;;;;55.25;42.25;;;;;10.39;71.09;99199.53;6289916;22;47611;-82
2023/11/30 09:03:33;;;;;;;;;55.25;45.50;;;;;10.06;70.93;99198.03;6246593;22;46207;-77
2023/11/30 09:06:01;;;;;;;;;49.33;42.67;;;;;10.11;71.29;99163.47;6283256;22;45278;-79
2023/11/30 09:13:52;;;;;;;;;;;;;;;;;;;;;
2023/11/30 09:16:31;;;;;;;;;57.75;46.50;;;;;10.49;70.96;99210.94;6347565;22;67958;-84
2023/11/30 09:19:46;;;;;;;;;56.00;47.00;;;;;10.52;70.72;99184.34;6318321;22;45534;-84
2023/11/30 09:55:53;;;;;;;;;40.50;35.50;;;;;11.30;68.66;99211.75;6215811;22;46687;-80
2023/11/30 09:58:36;;;;;;;;;35.00;33.67;;;;;11.05;67.53;99178.38;6265860;22;45188;-83
2023/11/30 10:01:34;;;;;;;;;;;;;;;;;;;;;
2023/11/30 10:04:48;;;;;;;;;33.33;30.33;;;;;11.18;66.14;99206.59;6170472;22;68826;-81
2023/11/30 10:07:15;;;;;;;;;38.67;32.33;;;;;11.01;66.19;99197.06;6166676;23;44890;-83
2023/11/30 10:09:48;;;;;;;;;30.00;28.67;;;;;10.69;66.85;99196.56;6167775;22;45605;-78
2023/11/30 10:12:16;;;;;;;;;35.33;32.33;;;;;10.75;66.11;99200.03;6161349;23;45388;-78
2023/11/30 10:14:53;;;;;;;;;;;;;;;;;;;;;
2023/11/30 10:18:13;;;;;;;;;;;;;;;;;;;;;
2023/11/30 10:20:52;;;;;;;;;34.33;32.00;;;;;11.11;66.67;99168.56;6160039;23;46468;-78
2023/11/30 10:24:13;;;;;;;;;;;;;;;;;;;;;
2023/11/30 10:35:23;;;;;;;;;28.00;26.67;;;;;11.25;62.34;99156.81;6318603;22;44891;-83
2023/11/30 10:38:03;;;;;;;;;22.67;21.67;;;;;11.51;62.08;99176.00;6321304;22;45309;-83
2023/11/30 10:46:18;;;;;;;;;19.67;17.67;;;;;11.97;59.58;99166.41;6315861;22;47019;-82
2023/11/30 10:49:09;;;;;;;;;27.67;22.00;;;;;11.82;61.28;99125.75;6326958;22;45443;-82
2023/11/30 10:51:44;;;;;;;;;27.00;23.67;;;;;11.82;60.01;99140.88;6356510;22;44877;-79
2023/11/30 10:54:36;;;;;;;;;;;;;;;;;;;;;
2023/11/30 10:57:03;;;;;;;;;16.00;16.00;;;;;11.61;58.92;99116.38;6349458;22;72013;-78
2023/11/30 11:00:07;;;;;;;;;17.33;17.33;;;;;11.84;59.86;99100.91;6321259;22;45321;-77
2023/11/30 11:02:47;;;;;;;;;25.33;20.67;;;;;12.11;59.92;99131.53;6346428;22;44829;-78
2023/11/30 11:05:32;;;;;;;;;25.67;22.67;;;;;11.93;57.62;99095.44;6319266;22;47143;-78
2023/11/30 11:07:59;;;;;;;;;18.00;15.67;;;;;11.56;56.63;99083.59;6346855;22;45313;-78
2023/11/30 11:14:22;;;;;;;;;;;;;;;;;;;;;
2023/11/30 11:16:53;;;;;;;;;14.33;14.33;;;;;11.75;55.80;99102.78;6345764;22;75185;-78
2023/11/30 11:19:42;;;;;;;;;16.33;13.00;;;;;11.61;56.63;99099.47;6345423;22;44885;-78
2023/11/30 11:22:29;;;;;;;;;14.67;14.00;;;;;12.00;58.15;99121.94;6293257;22;45342;-78
2023/11/30 11:25:45;;;;;;;;;16.67;16.67;;;;;11.96;55.94;99127.38;6316557;22;45333;-79
2023/11/30 11:28:19;;;;;;;;;16.00;16.00;;;;;11.69;57.52;99092.25;6157589;23;45322;-77
2023/11/30 11:30:51;;;;;;;;;16.67;16.67;;;;;11.71;56.64;99100.22;6134208;23;45331;-78
2023/11/30 11:33:43;;;;;;;;;16.00;15.33;;;;;11.99;56.31;99106.84;6133012;23;45418;-77
2023/11/30 11:36:09;;;;;;;;;19.00;15.33;;;;;11.46;56.10;99062.50;6132115;23;45280;-80
2023/11/30 11:38:38;;;;;;;;;11.67;11.00;;;;;11.81;54.09;99070.75;6156326;23;47288;-78
2023/11/30 11:41:05;;;;;;;;;17.00;15.00;;;;;11.55;55.35;99062.31;6130277;23;45346;-78
2023/11/30 11:43:31;;;;;;;;;16.00;14.67;;;;;11.46;55.96;99099.75;6128862;23;45636;-78
2023/11/30 11:45:56;;;;;;;;;16.67;15.33;;;;;11.68;53.00;99071.88;6112933;23;44950;-82
2023/11/30 12:53:06;;;;;;;;;21.00;17.67;;;;;12.65;55.62;99075.38;6327073;22;46886;-82
2023/11/30 13:06:56;;;;;;;;;13.00;12.00;;;;;12.45;54.71;99056.25;6370067;22;45736;-82
2023/11/30 13:09:32;;;;;;;;;15.00;15.00;;;;;12.57;55.62;99051.53;6381057;22;44731;-82
2023/11/30 13:11:57;;;;;;;;;14.33;14.00;;;;;12.45;55.39;99057.13;6384872;22;45467;-83
2023/11/30 13:14:25;;;;;;;;;14.33;13.67;;;;;12.59;53.75;99076.38;6387378;22;45316;-82
2023/11/30 13:16:56;;;;;;;;;20.00;16.67;;;;;12.65;56.43;99046.03;6388009;22;44946;-80
2023/11/30 13:19:24;;;;;;;;;18.33;17.33;;;;;12.59;56.04;99060.38;6348243;22;45393;-77
2023/11/30 13:22:08;;;;;;;;;19.67;16.67;;;;;13.01;55.95;99036.31;6346482;22;46785;-77
2023/11/30 13:24:33;;;;;;;;;17.00;17.00;;;;;12.80;56.35;99044.81;6347247;22;45322;-78
2023/11/30 13:26:59;;;;;;;;;14.33;12.33;;;;;12.90;55.09;99045.47;6346568;22;45277;-77
2023/11/30 13:29:29;;;;;;;;;16.33;16.00;;;;;12.85;56.30;99044.72;6374773;22;44951;-84
2023/11/30 13:31:55;;;;;;;;;14.00;14.00;;;;;12.89;54.49;99063.28;6384287;22;47011;-83
2023/11/30 13:34:20;;;;;;;;;14.67;14.67;;;;;12.93;54.02;99085.44;6355664;22;45337;-83
2023/11/30 13:36:56;;;;;;;;;;;;;;;;;;;;;
2023/11/30 13:47:02;;;;;;;;;12.33;9.67;;;;;13.02;54.83;99074.56;6352575;22;44921;-82
2023/11/30 13:49:32;;;;;;;;;15.67;12.00;;;;;12.84;55.61;99057.16;6252548;22;45646;-84
2023/11/30 13:51:59;;;;;;;;;17.00;14.67;;;;;12.93;56.51;99075.66;6323786;22;46459;-82
2023/11/30 14:09:56;;;;;;;;;7.00;7.00;;;;;12.63;54.74;99103.00;6315518;22;45426;-77
2023/11/30 14:12:23;;;;;;;;;10.33;8.00;;;;;12.61;55.97;99101.22;6286372;22;47609;-79
2023/11/30 14:15:02;;;;;;;;;11.67;11.67;;;;;13.00;56.31;99109.28;6312820;22;46464;-82
2023/11/30 14:30:20;;;;;;;;;15.33;11.67;;;;;12.79;56.68;99067.06;6251519;22;46853;-82
2023/11/30 14:32:45;;;;;;;;;14.33;13.00;;;;;12.89;55.42;99083.78;6346149;22;45479;-84
2023/11/30 14:35:31;;;;;;;;;9.67;9.67;;;;;12.78;54.23;99074.19;6319267;22;45430;-85
2023/11/30 14:37:58;;;;;;;;;15.67;12.33;;;;;12.84;52.57;99058.97;6318710;22;45348;-84
2023/11/30 14:40:25;;;;;;;;;11.00;9.33;;;;;12.78;53.21;99030.63;6348486;22;45314;-84
2023/11/30 14:42:55;;;;;;;;;12.33;12.33;;;;;12.97;54.87;99039.13;6324088;22;47032;-83
2023/11/30 14:45:54;;;;;;;;;11.67;11.33;;;;;13.13;55.33;99012.94;6335622;22;44730;-82
2023/11/30 14:56:36;;;;;;;;;12.33;10.67;;;;;12.77;55.68;99047.56;6268847;22;46413;-81
2023/11/30 15:01:38;;;;;;;;;13.33;11.33;;;;;12.33;55.14;99073.38;6295731;22;45230;-78
2023/11/30 15:04:04;;;;;;;;;9.00;9.00;;;;;12.18;55.46;99075.44;6376697;22;47079;-78
2023/11/30 15:06:29;;;;;;;;;14.00;11.00;;;;;12.11;56.60;99081.75;6348371;22;45287;-78
2023/11/30 15:08:55;;;;;;;;;15.33;12.00;;;;;12.18;57.08;99088.75;6348612;22;45309;-78
2023/11/30 15:11:20;;;;;;;;;12.00;11.67;;;;;12.13;57.37;99069.28;6349581;22;44776;-78
2023/11/30 15:13:46;;;;;;;;;11.00;10.33;;;;;12.27;56.79;99094.81;6378362;22;46554;-76
2023/11/30 15:16:12;;;;;;;;;11.33;10.00;;;;;12.23;57.28;99093.13;6376620;22;45629;-80
2023/11/30 15:18:38;;;;;;;;;7.67;7.67;;;;;12.17;55.71;99092.31;6349829;22;45338;-77
2023/11/30 15:21:09;;;;;;;;;10.67;9.67;;;;;12.40;56.91;99082.97;6372955;22;44784;-77
2023/11/30 15:23:35;;;;;;;;;10.33;10.33;;;;;12.00;56.49;99081.09;6375409;22;46921;-78
2023/11/30 15:26:01;;;;;;;;;8.33;8.33;;;;;11.97;57.18;99086.47;6348310;22;45278;-77
2023/11/30 15:28:27;;;;;;;;;7.00;6.33;;;;;11.90;55.31;99084.84;6377895;22;45324;-77
2023/11/30 15:30:53;;;;;;;;;15.67;14.33;;;;;11.82;56.15;99067.16;6375621;22;45345;-78
2023/11/30 15:35:54;;;;;;;;;7.67;7.67;;;;;11.79;57.58;99064.53;6339460;22;45129;-79
2023/11/30 15:38:21;;;;;;;;;8.67;8.67;;;;;11.82;57.10;99072.50;6317372;22;44873;-76
2023/11/30 15:40:47;;;;;;;;;7.00;7.00;;;;;11.79;57.41;99071.66;6371699;22;44769;-77
2023/11/30 15:43:13;;;;;;;;;10.33;10.00;;;;;11.81;57.22;99080.50;6374815;22;45470;-76
2023/11/30 15:45:38;;;;;;;;;13.00;10.33;;;;;11.76;57.56;99082.38;6347128;22;45748;-78
2023/11/30 15:48:05;;;;;;;;;12.00;11.33;;;;;11.68;57.52;99082.50;6376347;22;44696;-78
2023/11/30 15:50:31;;;;;;;;;10.00;10.00;;;;;11.49;56.92;99052.66;6376874;22;45215;-79
2023/11/30 15:52:59;;;;;;;;;10.00;7.33;;;;;11.46;57.18;99036.75;6348297;22;47019;-78
2023/11/30 15:55:25;;;;;;;;;12.00;10.67;;;;;11.58;57.67;99023.22;6347645;22;44869;-78
2023/11/30 15:57:51;;;;;;;;;14.67;11.67;;;;;11.45;57.81;99031.44;6377190;22;45848;-79
2023/11/30 16:21:00;;;;;;;;;16.33;14.33;;;;;11.32;59.59;99178.03;6320309;22;46829;-83
2023/11/30 16:23:25;;;;;;;;;12.00;12.00;;;;;11.29;59.29;99154.13;6346109;22;47252;-83
2023/11/30 16:25:51;;;;;;;;;15.00;12.33;;;;;11.35;58.97;99151.38;6346602;22;45325;-81
2023/11/30 16:28:19;;;;;;;;;16.00;13.33;;;;;11.16;58.86;99147.22;6315069;22;45414;-83
2023/11/30 16:30:48;;;;;;;;;13.00;11.00;;;;;11.55;59.60;99168.81;6349209;22;45337;-82
2023/11/30 16:33:13;;;;;;;;;11.00;11.00;;;;;11.24;58.55;99177.25;6319283;22;48599;-84
2023/11/30 16:35:38;;;;;;;;;12.33;11.67;;;;;11.21;58.27;99161.34;6346181;22;45392;-83
2023/11/30 16:38:04;;;;;;;;;16.33;14.33;;;;;11.23;58.73;99170.19;6344748;22;45365;-84
2023/11/30 16:40:29;;;;;;;;;13.00;11.00;;;;;11.22;58.98;99160.41;6365689;22;45772;-83
2023/11/30 16:42:56;;;;;;;;;12.00;12.00;;;;;11.30;59.61;99170.97;6348337;22;47476;-83
2023/11/30 16:45:21;;;;;;;;;12.00;10.33;;;;;11.28;59.50;99159.47;6346021;22;45645;-83
2023/11/30 16:47:48;;;;;;;;;13.33;12.67;;;;;11.29;59.08;99156.78;6348809;22;45371;-84
2023/11/30 16:50:14;;;;;;;;;10.67;10.67;;;;;11.26;58.05;99155.94;6381604;22;45215;-84
2023/11/30 16:52:47;;;;;;;;;10.00;10.00;;;;;11.51;58.84;99162.69;6376572;22;45383;-82
2023/11/30 16:55:15;;;;;;;;;11.00;9.33;;;;;11.30;59.38;99160.31;6379729;22;45332;-83
2023/11/30 16:57:41;;;;;;;;;15.00;13.33;;;;;11.24;59.73;99169.25;6377280;22;45500;-81
2023/11/30 17:00:07;;;;;;;;;11.00;11.00;;;;;11.32;59.57;99174.47;6348478;22;45384;-83
2023/11/30 17:02:34;;;;;;;;;15.00;12.00;;;;;11.49;59.47;99168.91;6349166;22;47128;-84
2023/11/30 17:05:04;;;;;;;;;13.33;13.33;;;;;11.27;59.68;99171.91;6322788;22;45431;-84
2023/11/30 17:07:30;;;;;;;;;13.00;11.33;;;;;11.27;59.91;99179.88;6348382;22;45371;-82
2023/11/30 17:09:55;;;;;;;;;11.00;11.00;;;;;11.24;59.85;99169.25;6347985;22;45313;-83
2023/11/30 17:12:24;;;;;;;;;13.33;13.33;;;;;11.51;59.55;99164.44;6378526;22;46273;-83
2023/11/30 17:14:54;;;;;;;;;13.33;10.33;;;;;11.41;60.33;99167.25;6379806;22;45416;-82
2023/11/30 17:17:19;;;;;;;;;13.67;13.33;;;;;11.19;60.32;99161.34;6346118;22;44780;-82
2023/11/30 17:20:15;;;;;;;;;16.67;14.00;;;;;11.65;60.20;99156.25;6373766;22;45396;-85
2023/11/30 17:22:41;;;;;;;;;20.00;19.00;;;;;11.26;61.04;99161.28;6372889;22;45455;-82
2023/11/30 17:25:08;;;;;;;;;18.33;15.33;;;;;11.35;61.40;99153.13;6375197;22;45338;-83